Time;durP1;ratioP1;P1;durP2;ratioP2;P2;SDS_P1;SDS_P2;PMS_P1;PMS_P2;Temp;Humidity;BMP_temperature;BMP_pressure;BME280_temperature;BME280_humidity;BME280_pressure;Samples;Min_cycle;Max_cycle;Signal;HPM_P1;HPM_P2
2023/06/13 00:02:46;;;;;;;7.67;4.83;;;20.70;46.00;;;;;;20957178;28;20200;-64
2023/06/13 00:12:49;;;;;;;9.07;4.90;;;20.40;46.30;;;;;;20948171;28;20219;-64
2023/06/13 00:22:52;;;;;;;9.73;4.67;;;20.30;46.40;;;;;;20943346;28;20235;-63
2023/06/13 00:32:56;;;;;;;7.77;4.50;;;20.10;46.50;;;;;;20913625;28;20217;-65
2023/06/13 00:42:58;;;;;;;6.97;4.67;;;19.80;47.40;;;;;;20912075;28;20297;-66
2023/06/13 00:53:04;;;;;;;5.40;4.43;;;19.60;47.70;;;;;;20914147;28;20211;-75
2023/06/13 01:03:07;;;;;;;5.50;4.53;;;19.50;48.20;;;;;;20914978;28;20258;-76
2023/06/13 01:13:37;;;;;;;10.00;4.80;;;19.50;48.70;;;;;;20914688;28;20215;-67
2023/06/13 01:24:27;;;;;;;7.30;4.57;;;19.40;48.80;;;;;;20911769;28;20240;-64
2023/06/13 01:34:30;;;;;;;7.37;4.50;;;19.30;49.00;;;;;;20911396;28;20213;-76
2023/06/13 01:44:31;;;;;;;7.10;4.23;;;19.20;49.20;;;;;;20920538;28;20325;-76
2023/06/13 01:54:37;;;;;;;6.87;4.60;;;19.20;49.40;;;;;;20925996;28;20296;-63
2023/06/13 02:04:43;;;;;;;6.67;4.53;;;19.10;49.90;;;;;;20925824;28;20235;-62
2023/06/13 02:14:45;;;;;;;12.17;4.20;;;19.10;50.10;;;;;;20924350;28;20232;-62
2023/06/13 02:24:47;;;;;;;6.17;4.37;;;18.80;50.40;;;;;;20923662;28;20748;-62
2023/06/13 02:34:49;;;;;;;6.07;4.40;;;18.80;50.50;;;;;;20923469;28;20212;-62
2023/06/13 02:44:51;;;;;;;6.77;4.37;;;18.60;50.90;;;;;;20922102;28;20635;-68
2023/06/13 02:54:52;;;;;;;7.17;4.47;;;18.40;51.20;;;;;;20920643;28;20615;-74
2023/06/13 03:04:55;;;;;;;10.80;5.33;;;;;;;;;;20920821;28;20241;-74
2023/06/13 03:14:56;;;;;;;8.00;4.90;;;18.00;53.30;;;;;;20951996;28;20277;-72
2023/06/13 03:25:04;;;;;;;9.90;5.10;;;17.70;54.00;;;;;;20930709;28;20242;-76
2023/06/13 03:35:06;;;;;;;10.03;7.20;;;17.50;55.00;;;;;;20920445;28;20206;-75
2023/06/13 03:45:09;;;;;;;6.17;4.40;;;;;;;;;;20922150;28;20713;-73
2023/06/13 03:55:11;;;;;;;8.50;4.57;;;17.60;55.10;;;;;;20916447;28;20214;-77
2023/06/13 04:05:13;;;;;;;7.07;5.00;;;17.60;55.00;;;;;;20915533;28;20240;-77
2023/06/13 04:15:16;;;;;;;7.87;5.33;;;;;;;;;;20914854;28;20251;-76
2023/06/13 04:33:06;;;;;;;8.10;4.90;;;;;;;;;;20984089;28;20900;-68
2023/06/13 04:43:09;;;;;;;7.83;4.30;;;18.20;54.40;;;;;;20982206;28;20218;-67
2023/06/13 04:53:15;;;;;;;8.93;4.60;;;18.60;53.90;;;;;;20983151;28;20580;-62
2023/06/13 05:03:21;;;;;;;7.03;4.27;;;19.00;53.40;;;;;;20981628;28;20212;-77
2023/06/13 05:13:23;;;;;;;8.87;4.63;;;19.30;53.00;;;;;;20981113;28;20297;-76
2023/06/13 05:23:26;;;;;;;10.47;4.80;;;19.40;52.60;;;;;;20980352;28;20285;-65
2023/06/13 05:33:28;;;;;;;8.53;4.43;;;19.50;52.20;;;;;;20979392;28;20238;-73
2023/06/13 05:43:29;;;;;;;9.20;4.67;;;19.60;52.00;;;;;;20928474;28;20239;-68
2023/06/13 05:53:31;;;;;;;8.03;4.63;;;19.70;51.90;;;;;;20922628;28;20238;-69
2023/06/13 06:03:33;;;;;;;8.27;4.80;;;19.90;52.10;;;;;;20922047;28;20314;-81
2023/06/13 06:13:35;;;;;;;10.50;4.43;;;20.20;51.40;;;;;;20928299;28;20671;-78
2023/06/13 06:23:39;;;;;;;12.70;4.40;;;20.30;51.60;;;;;;20920091;28;20239;-72
2023/06/13 06:33:41;;;;;;;16.37;4.30;;;20.50;51.50;;;;;;20919409;28;20266;-75
2023/06/13 06:43:43;;;;;;;5.30;3.97;;;20.70;51.40;;;;;;20918215;28;20239;-70
2023/06/13 06:53:44;;;;;;;8.87;4.60;;;21.00;51.10;;;;;;20916366;28;20562;-72
2023/06/13 07:03:46;;;;;;;9.90;4.20;;;21.20;50.90;;;;;;20916611;28;20310;-67
2023/06/13 07:13:48;;;;;;;12.10;3.93;;;21.50;50.30;;;;;;20916095;28;20214;-68
2023/06/13 07:23:50;;;;;;;5.23;4.27;;;21.70;49.60;;;;;;20915101;28;20235;-68
2023/06/13 07:34:07;;;;;;;4.53;3.70;;;22.00;49.20;;;;;;20915351;28;20744;-72
2023/06/13 07:44:29;;;;;;;8.57;4.40;;;22.20;48.90;;;;;;20914062;28;20251;-76
2023/06/13 07:54:31;;;;;;;8.23;4.00;;;22.40;48.20;;;;;;20912105;28;20233;-78
2023/06/13 08:04:33;;;;;;;8.50;3.67;;;22.60;47.20;;;;;;20912989;28;20239;-77
2023/06/13 08:14:54;;;;;;;7.03;3.37;;;22.70;45.40;;;;;;20913493;28;20669;-80
2023/06/13 08:24:56;;;;;;;5.33;3.30;;;22.80;43.00;;;;;;20911697;28;20334;-78
2023/06/13 08:34:59;;;;;;;5.13;3.37;;;22.90;42.20;;;;;;20912288;28;20208;-79
2023/06/13 08:45:01;;;;;;;6.60;3.20;;;23.10;41.80;;;;;;20914950;28;20698;-75
2023/06/13 08:55:08;;;;;;;6.00;3.47;;;23.20;41.40;;;;;;20912641;28;20607;-68
2023/06/13 09:05:31;;;;;;;4.47;3.10;;;23.40;40.30;;;;;;20911149;28;20263;-71
2023/06/13 09:15:34;;;;;;;4.50;3.13;;;23.30;39.50;;;;;;20918216;28;20867;-69
2023/06/13 09:25:36;;;;;;;5.70;3.20;;;23.60;39.10;;;;;;20924294;28;20322;-70
2023/06/13 09:35:38;;;;;;;7.83;3.30;;;23.80;38.10;;;;;;20924287;28;20609;-69
2023/06/13 09:45:43;;;;;;;3.67;3.10;;;23.70;37.70;;;;;;20923442;28;20243;-70
2023/06/13 09:55:45;;;;;;;8.20;3.73;;;23.90;37.90;;;;;;20922350;28;20208;-68
2023/06/13 10:05:47;;;;;;;5.47;3.10;;;24.20;37.50;;;;;;20921827;28;20318;-76
2023/06/13 10:15:55;;;;;;;9.97;3.33;;;24.40;37.40;;;;;;20921113;28;20211;-79
2023/06/13 10:26:06;;;;;;;6.60;3.10;;;24.50;37.30;;;;;;20920237;28;20250;-76
2023/06/13 10:36:18;;;;;;;4.40;3.30;;;24.70;36.70;;;;;;20920269;28;20204;-75
2023/06/13 10:46:20;;;;;;;5.73;3.03;;;24.70;36.10;;;;;;20918963;28;20326;-73
2023/06/13 10:56:28;;;;;;;8.33;3.20;;;24.90;36.20;;;;;;20917951;28;20216;-77
2023/06/13 11:06:30;;;;;;;4.53;3.37;;;25.00;36.20;;;;;;20918272;28;20231;-78
2023/06/13 11:16:43;;;;;;;4.43;2.93;;;25.10;35.70;;;;;;20917001;28;20214;-79
2023/06/13 11:26:45;;;;;;;3.27;2.97;;;25.20;35.40;;;;;;20918452;28;20714;-79
2023/06/13 11:36:49;;;;;;;6.90;3.17;;;25.30;35.10;;;;;;20875140;28;20219;-70
2023/06/13 11:46:51;;;;;;;9.77;3.30;;;25.30;35.40;;;;;;20863786;28;20242;-75
2023/06/13 11:56:53;;;;;;;9.53;3.20;;;25.60;35.00;;;;;;20864068;28;20232;-68
2023/06/13 12:06:57;;;;;;;5.23;3.23;;;26.00;34.00;;;;;;20865636;28;20234;-73
2023/06/13 12:17:00;;;;;;;4.40;3.10;;;26.20;33.30;;;;;;20863325;28;20323;-68
2023/06/13 12:27:02;;;;;;;7.60;3.30;;;26.40;32.80;;;;;;20872675;28;20252;-72
2023/06/13 12:37:07;;;;;;;10.60;3.60;;;26.70;32.30;;;;;;20829282;28;20291;-72
2023/06/13 12:47:11;;;;;;;6.67;3.30;;;26.80;31.80;;;;;;20832559;28;20597;-78
2023/06/13 12:57:15;;;;;;;9.73;3.50;;;26.80;31.70;;;;;;20844686;28;20256;-74
2023/06/13 13:07:18;;;;;;;3.50;3.20;;;26.70;31.70;;;;;;20904155;28;20227;-71
2023/06/13 13:17:20;;;;;;;5.63;3.30;;;26.70;31.90;;;;;;20923133;28;20200;-79
2023/06/13 13:27:23;;;;;;;4.83;3.83;;;26.80;31.90;;;;;;20925275;28;20714;-76
2023/06/13 13:37:25;;;;;;;6.93;3.50;;;27.10;32.20;;;;;;20924889;28;20208;-69
2023/06/13 13:47:26;;;;;;;3.90;3.40;;;27.20;32.10;;;;;;20924128;28;20733;-73
2023/06/13 13:57:28;;;;;;;3.85;3.38;;;27.30;31.70;;;;;;20923397;28;20204;-76
2023/06/13 14:07:30;;;;;;;6.50;3.30;;;27.50;31.20;;;;;;20923129;28;20239;-80
2023/06/13 14:17:32;;;;;;;10.10;3.65;;;27.70;30.40;;;;;;20928099;28;20207;-71
2023/06/13 14:27:34;;;;;;;5.47;3.05;;;28.10;29.90;;;;;;20920353;28;20239;-79
2023/06/13 14:37:35;;;;;;;7.50;3.13;;;30.80;28.30;;;;;;20919528;28;20207;-79
2023/06/13 14:47:38;;;;;;;3.88;2.78;;;30.20;28.30;;;;;;20919288;28;20239;-68
2023/06/13 14:57:40;;;;;;;6.90;2.92;;;30.30;27.80;;;;;;20918404;28;20698;-68
2023/06/13 15:07:42;;;;;;;9.57;2.97;;;31.60;26.70;;;;;;20916259;28;20239;-77
2023/06/13 15:17:44;;;;;;;9.00;3.67;;;32.60;26.60;;;;;;20917631;28;20574;-67
2023/06/13 15:27:46;;;;;;;4.93;3.10;;;32.80;26.10;;;;;;20915674;28;20354;-71
2023/06/13 15:37:47;;;;;;;11.52;3.20;;;32.50;26.20;;;;;;20915882;28;20290;-77
2023/06/13 15:47:51;;;;;;;6.43;2.90;;;32.30;26.20;;;;;;20914909;28;20334;-73
2023/06/13 15:57:53;;;;;;;6.47;3.40;;;34.20;25.20;;;;;;20913707;28;20294;-73
2023/06/13 16:07:55;;;;;;;6.30;3.00;;;35.50;24.50;;;;;;20913457;28;20238;-77
2023/06/13 16:17:57;;;;;;;4.90;3.00;;;39.90;22.70;;;;;;20861557;28;20550;-75
2023/06/13 16:28:00;;;;;;;5.45;2.75;;;41.80;21.50;;;;;;20825773;28;20602;-79
2023/06/13 16:38:02;;;;;;;6.13;2.90;;;39.60;21.80;;;;;;20844294;28;20220;-75
2023/06/13 16:48:04;;;;;;;9.57;3.60;;;35.00;23.70;;;;;;20830016;28;20263;-72
2023/06/13 16:58:06;;;;;;;9.60;3.25;;;34.00;24.10;;;;;;20835143;28;20287;-78
2023/06/13 17:08:09;;;;;;;6.45;3.22;;;34.50;24.20;;;;;;20851548;28;20294;-65
2023/06/13 17:18:11;;;;;;;4.53;3.00;;;36.80;22.90;;;;;;20877649;28;20292;-70
2023/06/13 17:28:13;;;;;;;4.82;3.03;;;40.90;21.20;;;;;;20866771;28;20725;-68
2023/06/13 17:38:14;;;;;;;4.85;3.20;;;40.70;20.80;;;;;;20918356;28;20200;-72
2023/06/13 17:48:18;;;;;;;16.83;3.55;;;43.60;19.90;;;;;;20923778;28;20224;-71
2023/06/13 17:58:20;;;;;;;5.53;3.00;;;41.90;20.10;;;;;;20924822;28;20298;-73
2023/06/13 18:08:22;;;;;;;7.35;3.30;;;41.90;19.90;;;;;;20922562;28;20232;-76
2023/06/13 18:18:23;;;;;;;7.22;3.40;;;35.50;22.30;;;;;;20922212;28;20204;-74
2023/06/13 18:28:25;;;;;;;7.43;3.53;;;31.50;24.40;;;;;;20920614;28;20313;-73
2023/06/13 18:38:27;;;;;;;11.80;4.18;;;29.30;25.80;;;;;;20920167;28;20216;-79
2023/06/13 18:48:29;;;;;;;6.60;3.80;;;28.10;26.80;;;;;;20918478;28;20232;-78
2023/06/13 18:58:32;;;;;;;6.07;3.50;;;27.40;27.90;;;;;;20918108;28;20211;-73
2023/06/13 19:08:34;;;;;;;9.33;3.53;;;26.70;28.70;;;;;;20917746;28;20330;-76
2023/06/13 19:18:35;;;;;;;8.93;3.67;;;26.20;29.50;;;;;;20917316;28;20726;-72
2023/06/13 19:28:38;;;;;;;10.53;3.83;;;25.70;30.30;;;;;;20916473;28;20251;-76
2023/06/13 19:38:39;;;;;;;4.50;3.80;;;25.10;31.60;;;;;;20919328;28;20196;-74
2023/06/13 19:48:42;;;;;;;5.10;3.70;;;24.70;33.00;;;;;;20916049;28;20243;-60
2023/06/13 19:58:44;;;;;;;5.90;3.70;;;24.30;34.30;;;;;;20913664;28;20302;-61
2023/06/13 20:08:46;;;;;;;4.47;3.83;;;24.10;35.30;;;;;;20913613;28;20236;-62
2023/06/13 20:18:47;;;;;;;6.10;4.40;;;23.90;36.10;;;;;;20912614;28;20562;-61
2023/06/13 20:28:49;;;;;;;5.87;4.30;;;23.70;36.40;;;;;;20911921;28;20236;-60
2023/06/13 20:38:51;;;;;;;7.47;4.43;;;23.50;37.60;;;;;;20913269;28;20212;-62
2023/06/13 20:48:55;;;;;;;9.73;4.83;;;23.30;38.00;;;;;;20910016;28;20289;-62
2023/06/13 20:58:58;;;;;;;6.67;4.67;;;23.00;38.80;;;;;;20911689;28;20208;-62
2023/06/13 21:09:04;;;;;;;7.70;4.87;;;22.70;39.80;;;;;;20914743;28;20600;-64
2023/06/13 21:19:06;;;;;;;7.70;4.63;;;22.50;40.30;;;;;;20913245;28;20258;-63
2023/06/13 21:29:08;;;;;;;9.80;5.27;;;22.20;41.10;;;;;;20879497;28;20236;-69
2023/06/13 21:39:10;;;;;;;10.30;4.73;;;21.90;41.20;;;;;;20883883;28;20212;-63
2023/06/13 21:49:12;;;;;;;8.10;5.10;;;21.70;42.30;;;;;;20875323;28;20243;-64
2023/06/13 21:59:13;;;;;;;12.10;5.10;;;21.60;42.20;;;;;;20875901;28;20208;-68
2023/06/13 22:09:16;;;;;;;7.50;5.00;;;21.30;43.40;;;;;;20885543;28;20232;-64
2023/06/13 22:19:22;;;;;;;12.63;5.50;;;21.30;44.10;;;;;;20854167;28;20216;-64
2023/06/13 22:29:24;;;;;;;8.63;5.73;;;21.10;45.30;;;;;;20838532;28;20248;-63
2023/06/13 22:39:26;;;;;;;9.33;5.77;;;20.80;45.90;;;;;;20838256;28;20673;-64
2023/06/13 22:49:29;;;;;;;7.33;5.27;;;20.70;46.80;;;;;;20837609;28;20330;-72
2023/06/13 22:59:30;;;;;;;10.90;5.43;;;20.30;47.70;;;;;;20836323;28;20208;-64
2023/06/13 23:09:33;;;;;;;9.10;5.10;;;20.20;48.20;;;;;;20835352;28;20675;-72
2023/06/13 23:19:35;;;;;;;16.13;5.90;;;19.80;49.50;;;;;;20835213;28;20663;-73
2023/06/13 23:29:38;;;;;;;7.63;5.43;;;19.50;49.20;;;;;;20832860;28;20282;-72
2023/06/13 23:39:40;;;;;;;12.60;6.00;;;19.30;49.90;;;;;;20833427;28;20219;-73
2023/06/13 23:49:44;;;;;;;10.73;5.60;;;;;;;;;;20832619;28;20328;-66
2023/06/13 23:59:45;;;;;;;10.87;5.90;;;18.80;51.00;;;;;;20832643;28;20217;-73
